Time;durP1;ratioP1;P1;durP2;ratioP2;P2;SDS_P1;SDS_P2;PMS_P1;PMS_P2;Temp;Humidity;BMP_temperature;BMP_pressure;BME280_temperature;BME280_humidity;BME280_pressure;Samples;Min_cycle;Max_cycle;Signal;HPM_P1;HPM_P2
2022/01/15 00:00:28;;;;;;;4.32;3.92;;;;;;;;;;5140292;27;20197;-60
2022/01/15 00:02:55;;;;;;;4.80;4.40;;;;;;;;;;5139866;27;20194;-59
2022/01/15 00:05:23;;;;;;;4.88;4.47;;;;;;;;;;5137596;27;20230;-59
2022/01/15 00:07:50;;;;;;;5.25;4.75;;;;;;;;;;5129710;27;20191;-60
2022/01/15 00:10:20;;;;;;;4.60;4.20;;;;;;;;;;5140718;27;20241;-59
2022/01/15 00:12:49;;;;;;;4.90;4.50;;;;;;;;;;5140174;27;20564;-59
2022/01/15 00:15:21;;;;;;;5.15;4.68;;;;;;;;;;5140251;27;20194;-59
2022/01/15 00:17:52;;;;;;;4.40;4.00;;;;;;;;;;5131860;27;20226;-60
2022/01/15 00:20:23;;;;;;;4.32;3.92;;;;;;;;;;5140918;27;20199;-60
2022/01/15 00:22:50;;;;;;;4.55;4.15;;;;;;;;;;5140521;27;20198;-59
2022/01/15 00:25:18;;;;;;;4.57;4.18;;;;;;;;;;5140627;27;20253;-60
2022/01/15 00:27:45;;;;;;;4.55;4.15;;;;;;;;;;5140035;27;20241;-59
2022/01/15 00:30:15;;;;;;;4.30;3.90;;;;;;;;;;5140387;27;20213;-60
2022/01/15 00:32:43;;;;;;;4.45;4.13;;;;;;;;;;5139234;27;20203;-59
2022/01/15 00:35:13;;;;;;;4.10;3.80;;;;;;;;;;5128382;27;20195;-60
2022/01/15 00:37:40;;;;;;;4.45;4.05;;;;;;;;;;5123147;27;20521;-59
2022/01/15 00:40:09;;;;;;;4.00;3.60;;;;;;;;;;5141330;27;20202;-59
2022/01/15 00:42:38;;;;;;;4.18;3.88;;;;;;;;;;5140373;27;20202;-59
2022/01/15 00:45:08;;;;;;;4.40;4.00;;;;;;;;;;5140157;27;20272;-60
2022/01/15 00:47:37;;;;;;;4.18;3.78;;;;;;;;;;5135735;27;20279;-59
2022/01/15 00:50:05;;;;;;;3.85;3.55;;;;;;;;;;5140307;27;20210;-59
2022/01/15 00:52:32;;;;;;;4.57;4.18;;;;;;;;;;5140020;27;20647;-61
2022/01/15 00:55:00;;;;;;;3.90;3.60;;;;;;;;;;5140137;27;20223;-60
2022/01/15 00:57:27;;;;;;;3.72;3.42;;;;;;;;;;5139629;27;20213;-61
2022/01/15 00:59:54;;;;;;;4.28;3.97;;;;;;;;;;5140419;27;20488;-60
2022/01/15 01:02:22;;;;;;;4.30;3.90;;;;;;;;;;5131816;27;20222;-60
2022/01/15 01:04:51;;;;;;;3.90;3.60;;;;;;;;;;5140753;27;20226;-60
2022/01/15 01:07:18;;;;;;;3.72;3.42;;;;;;;;;;5139698;27;20210;-60
2022/01/15 01:10:03;;;;;;;4.10;3.70;;;;;;;;;;5122710;27;20553;-59
2022/01/15 01:12:45;;;;;;;3.83;3.53;;;;;;;;;;5139972;27;20259;-60
2022/01/15 01:21:01;;;;;;;3.92;3.63;;;;;;;;;;5134797;27;20597;-59
2022/01/15 01:23:29;;;;;;;4.18;3.78;;;;;;;;;;5135462;27;20206;-60
2022/01/15 01:26:01;;;;;;;3.92;3.63;;;;;;;;;;5139306;27;20509;-60
2022/01/15 01:28:33;;;;;;;3.80;3.50;;;;;;;;;;5139699;27;20198;-61
2022/01/15 01:31:06;;;;;;;3.88;3.50;;;;;;;;;;5136378;27;20263;-60
2022/01/15 01:33:37;;;;;;;3.80;3.50;;;;;;;;;;5126828;27;20209;-60
2022/01/15 01:36:14;;;;;;;3.60;3.30;;;;;;;;;;5139111;27;20198;-60
2022/01/15 01:38:49;;;;;;;3.83;3.53;;;;;;;;;;5129076;27;20499;-60
2022/01/15 01:41:19;;;;;;;3.75;3.45;;;;;;;;;;5139429;27;20229;-60
2022/01/15 01:43:50;;;;;;;4.03;3.47;;;;;;;;;;5131421;27;20248;-60
2022/01/15 01:46:30;;;;;;;3.88;3.50;;;;;;;;;;5133325;27;20233;-60
2022/01/15 01:48:59;;;;;;;3.78;3.47;;;;;;;;;;5139133;27;20292;-60
2022/01/15 01:51:31;;;;;;;3.90;3.60;;;;;;;;;;5139205;27;20221;-60
2022/01/15 01:53:59;;;;;;;4.10;3.80;;;;;;;;;;5139677;27;20210;-59
2022/01/15 01:56:27;;;;;;;3.70;3.40;;;;;;;;;;5138856;27;20202;-60
2022/01/15 01:58:55;;;;;;;3.50;3.20;;;;;;;;;;5139044;27;20213;-60
2022/01/15 02:01:22;;;;;;;3.17;2.92;;;;;;;;;;5139563;27;20194;-60
2022/01/15 02:03:50;;;;;;;3.80;3.50;;;;;;;;;;5139584;27;20209;-60
2022/01/15 02:06:18;;;;;;;3.97;3.58;;;;;;;;;;5138863;27;20643;-59
2022/01/15 02:08:47;;;;;;;3.78;3.47;;;;;;;;;;5129490;27;20234;-59
2022/01/15 02:11:15;;;;;;;3.42;3.13;;;;;;;;;;5139192;27;20210;-59
2022/01/15 02:13:44;;;;;;;4.32;3.92;;;;;;;;;;5139024;27;20198;-60
2022/01/15 02:16:12;;;;;;;3.53;3.22;;;;;;;;;;5139430;27;20557;-61
2022/01/15 02:18:39;;;;;;;3.65;3.35;;;;;;;;;;5138399;27;20636;-60
2022/01/15 02:23:55;;;;;;;3.72;3.42;;;;;;;;;;5139096;27;20339;-60
2022/01/15 02:26:23;;;;;;;3.28;3.00;;;;;;;;;;5138686;27;20233;-60
2022/01/15 02:28:54;;;;;;;3.60;3.30;;;;;;;;;;5139274;27;20229;-60
2022/01/15 02:31:22;;;;;;;3.60;3.30;;;;;;;;;;5137411;27;20225;-60
2022/01/15 02:33:50;;;;;;;3.50;3.20;;;;;;;;;;5126980;27;20199;-60
2022/01/15 02:36:20;;;;;;;3.78;3.47;;;;;;;;;;5138740;27;20225;-60
2022/01/15 02:38:47;;;;;;;3.50;3.20;;;;;;;;;;5129608;27;20218;-60
2022/01/15 02:41:15;;;;;;;3.58;3.28;;;;;;;;;;5139115;27;20198;-60
2022/01/15 02:43:42;;;;;;;3.35;3.05;;;;;;;;;;5138879;27;20202;-60
2022/01/15 02:46:22;;;;;;;3.53;3.10;;;;;;;;;;5132832;27;20215;-59
2022/01/15 02:48:51;;;;;;;3.60;3.30;;;;;;;;;;5136933;27;20234;-59
2022/01/15 02:51:20;;;;;;;3.30;3.00;;;;;;;;;;5128512;27;20263;-60
2022/01/15 02:53:50;;;;;;;3.50;3.20;;;;;;;;;;5129015;27;20206;-60
2022/01/15 02:56:17;;;;;;;3.00;2.80;;;;;;;;;;5132599;27;20202;-60
2022/01/15 02:58:44;;;;;;;3.80;3.50;;;;;;;;;;5138981;27;20202;-60
2022/01/15 03:01:12;;;;;;;3.10;2.80;;;;;;;;;;5138738;27;20202;-60
2022/01/15 03:03:40;;;;;;;3.72;3.33;;;;;;;;;;5138296;27;20198;-60
2022/01/15 03:06:10;;;;;;;3.22;2.92;;;;;;;;;;5138138;27;20221;-60
2022/01/15 03:08:39;;;;;;;3.40;3.10;;;;;;;;;;5138411;27;20198;-59
2022/01/15 03:11:07;;;;;;;3.58;3.28;;;;;;;;;;5129357;27;20230;-60
2022/01/15 03:13:34;;;;;;;3.20;2.88;;;;;;;;;;5134288;27;20209;-60
2022/01/15 03:16:02;;;;;;;3.13;2.92;;;;;;;;;;5138500;27;20570;-60
2022/01/15 03:18:29;;;;;;;3.40;3.10;;;;;;;;;;5138268;27;20198;-60
2022/01/15 03:20:56;;;;;;;3.22;2.90;;;;;;;;;;5138023;27;20206;-60
2022/01/15 03:23:23;;;;;;;2.83;2.63;;;;;;;;;;5137346;27;20267;-60
2022/01/15 03:25:52;;;;;;;3.42;2.90;;;;;;;;;;5137810;28;20229;-60
2022/01/15 03:28:20;;;;;;;3.97;3.13;;;;;;;;;;5138518;27;20220;-60
2022/01/15 03:30:47;;;;;;;3.30;3.00;;;;;;;;;;5136127;28;20205;-60
2022/01/15 03:33:15;;;;;;;3.20;2.95;;;;;;;;;;5138623;28;20504;-60
2022/01/15 03:35:42;;;;;;;3.30;3.00;;;;;;;;;;5134191;28;20191;-59
2022/01/15 03:38:10;;;;;;;3.08;2.88;;;;;;;;;;5130777;28;20198;-60
2022/01/15 03:40:37;;;;;;;3.40;3.10;;;;;;;;;;5136685;28;20217;-59
2022/01/15 03:43:06;;;;;;;3.67;3.30;;;;;;;;;;5138146;28;20198;-60
2022/01/15 03:45:35;;;;;;;2.83;2.63;;;;;;;;;;5138020;28;20214;-60
2022/01/15 03:48:02;;;;;;;3.60;3.30;;;;;;;;;;5138086;28;20203;-60
2022/01/15 03:50:30;;;;;;;3.35;3.05;;;;;;;;;;5136565;28;20190;-59
2022/01/15 03:52:57;;;;;;;3.13;2.83;;;;;;;;;;5130387;28;20195;-60
2022/01/15 03:55:25;;;;;;;3.45;3.15;;;;;;;;;;5132092;27;20205;-60
2022/01/15 03:57:53;;;;;;;2.85;2.65;;;;;;;;;;5138168;28;20202;-60
2022/01/15 04:00:24;;;;;;;3.10;2.90;;;;;;;;;;5138172;27;20195;-60
2022/01/15 04:02:51;;;;;;;3.25;2.95;;;;;;;;;;5138356;27;20514;-60
2022/01/15 04:05:19;;;;;;;3.30;3.00;;;;;;;;;;5138094;27;20222;-60
2022/01/15 04:07:46;;;;;;;3.33;3.03;;;;;;;;;;5135628;28;20259;-60
2022/01/15 04:10:15;;;;;;;3.50;3.20;;;;;;;;;;5122551;28;20238;-60
2022/01/15 04:12:42;;;;;;;3.20;2.90;;;;;;;;;;5138107;27;20202;-60
2022/01/15 04:15:13;;;;;;;3.40;3.10;;;;;;;;;;5137880;27;20202;-60
2022/01/15 04:17:42;;;;;;;2.53;2.33;;;;;;;;;;5138009;28;20199;-60
2022/01/15 04:20:10;;;;;;;3.47;3.17;;;;;;;;;;5137564;27;20203;-60
2022/01/15 04:22:37;;;;;;;3.30;3.00;;;;;;;;;;5137780;27;20214;-60
2022/01/15 04:25:05;;;;;;;3.40;3.10;;;;;;;;;;5137217;27;20199;-60
2022/01/15 04:27:32;;;;;;;3.05;2.75;;;;;;;;;;5137131;28;20202;-60
2022/01/15 04:30:02;;;;;;;3.30;3.00;;;;;;;;;;5135607;28;20202;-60
2022/01/15 04:32:30;;;;;;;3.28;2.97;;;;;;;;;;5134684;28;20210;-60
2022/01/15 04:34:59;;;;;;;3.20;2.92;;;;;;;;;;5126792;28;20232;-60
2022/01/15 04:37:35;;;;;;;3.20;2.90;;;;;;;;;;5124573;27;20205;-60
2022/01/15 04:40:02;;;;;;;3.30;3.00;;;;;;;;;;5136911;27;20205;-60
2022/01/15 04:42:30;;;;;;;3.00;2.80;;;;;;;;;;5139283;27;20206;-60
2022/01/15 04:44:57;;;;;;;3.28;3.03;;;;;;;;;;5131119;27;20199;-59
2022/01/15 04:47:25;;;;;;;3.45;3.15;;;;;;;;;;5140863;27;20240;-59
2022/01/15 04:49:54;;;;;;;3.40;3.10;;;;;;;;;;5140771;27;20259;-59
2022/01/15 04:52:24;;;;;;;3.35;3.05;;;;;;;;;;5140749;27;20209;-59
2022/01/15 04:54:51;;;;;;;3.30;3.00;;;;;;;;;;5140614;27;20602;-59
2022/01/15 04:57:19;;;;;;;3.28;2.97;;;;;;;;;;5128245;27;20265;-59
2022/01/15 04:59:46;;;;;;;2.85;2.63;;;;;;;;;;5138584;27;20202;-59
2022/01/15 05:02:13;;;;;;;3.30;3.00;;;;;;;;;;5140703;27;20198;-59
2022/01/15 05:04:41;;;;;;;3.45;3.15;;;;;;;;;;5141269;27;20220;-60
2022/01/15 05:07:09;;;;;;;3.30;3.00;;;;;;;;;;5140498;27;20222;-60
2022/01/15 05:09:37;;;;;;;3.25;2.95;;;;;;;;;;5140249;27;20241;-60
2022/01/15 05:12:10;;;;;;;3.33;3.03;;;;;;;;;;5137069;27;20215;-59
2022/01/15 05:14:38;;;;;;;3.70;3.15;;;;;;;;;;5128370;27;20210;-59
2022/01/15 05:17:05;;;;;;;3.35;3.05;;;;;;;;;;5139781;27;20194;-60
2022/01/15 05:19:33;;;;;;;3.25;2.95;;;;;;;;;;5140723;27;20203;-59
2022/01/15 05:22:01;;;;;;;3.30;3.00;;;;;;;;;;5137670;27;20226;-60
2022/01/15 05:24:30;;;;;;;3.22;2.92;;;;;;;;;;5139886;27;20202;-59
2022/01/15 05:26:59;;;;;;;3.15;2.95;;;;;;;;;;5138733;27;20254;-59
2022/01/15 05:29:26;;;;;;;3.10;2.90;;;;;;;;;;5139662;27;20198;-59
2022/01/15 05:31:54;;;;;;;2.90;2.67;;;;;;;;;;5138057;27;20210;-59
2022/01/15 05:34:21;;;;;;;2.97;2.67;;;;;;;;;;5123995;27;20600;-60
2022/01/15 05:36:49;;;;;;;2.78;2.53;;;;;;;;;;5138000;27;20202;-60
2022/01/15 05:39:16;;;;;;;2.97;2.78;;;;;;;;;;5126063;27;20585;-59
2022/01/15 05:41:44;;;;;;;3.05;2.85;;;;;;;;;;5136776;27;20214;-60
2022/01/15 05:44:12;;;;;;;3.10;2.80;;;;;;;;;;5138978;27;20213;-59
2022/01/15 05:46:40;;;;;;;3.13;2.92;;;;;;;;;;5139137;27;20636;-60
2022/01/15 05:49:07;;;;;;;3.58;3.28;;;;;;;;;;5139878;27;20202;-59
2022/01/15 05:51:35;;;;;;;3.42;3.13;;;;;;;;;;5137710;27;20221;-59
2022/01/15 05:54:03;;;;;;;2.75;2.47;;;;;;;;;;5138974;27;20213;-60
2022/01/15 05:56:31;;;;;;;3.20;2.90;;;;;;;;;;5128558;27;20227;-60
2022/01/15 05:58:58;;;;;;;3.03;2.83;;;;;;;;;;5139000;27;20196;-59
2022/01/15 06:01:27;;;;;;;3.22;2.92;;;;;;;;;;5134134;27;20206;-59
2022/01/15 06:03:54;;;;;;;2.72;2.53;;;;;;;;;;5130169;27;20210;-60
2022/01/15 06:06:22;;;;;;;3.15;2.90;;;;;;;;;;5139353;27;20615;-59
2022/01/15 06:08:49;;;;;;;2.83;2.63;;;;;;;;;;5139044;27;20202;-59
2022/01/15 06:11:17;;;;;;;3.20;2.90;;;;;;;;;;5139074;27;20527;-59
2022/01/15 06:13:45;;;;;;;3.28;2.97;;;;;;;;;;5138733;27;20247;-59
2022/01/15 06:16:13;;;;;;;3.17;2.88;;;;;;;;;;5138329;27;20454;-60
2022/01/15 06:18:41;;;;;;;2.92;2.72;;;;;;;;;;5137062;27;20206;-60
2022/01/15 06:21:09;;;;;;;2.95;2.75;;;;;;;;;;5138769;27;20198;-59
2022/01/15 06:23:36;;;;;;;3.30;3.00;;;;;;;;;;5138816;27;20210;-59
2022/01/15 06:26:04;;;;;;;2.75;2.55;;;;;;;;;;5138629;27;20229;-59
2022/01/15 06:28:31;;;;;;;2.92;2.72;;;;;;;;;;5133253;27;20199;-59
2022/01/15 06:30:58;;;;;;;2.83;2.60;;;;;;;;;;5129703;27;20501;-59
2022/01/15 06:33:25;;;;;;;2.80;2.60;;;;;;;;;;5138856;27;20205;-59
2022/01/15 06:35:54;;;;;;;2.55;2.35;;;;;;;;;;5138583;27;20199;-59
2022/01/15 06:38:21;;;;;;;2.72;2.53;;;;;;;;;;5124567;27;20558;-59
2022/01/15 06:40:49;;;;;;;2.88;2.67;;;;;;;;;;5138119;27;20198;-59
2022/01/15 06:43:16;;;;;;;3.05;2.65;;;;;;;;;;5137926;27;20723;-60
2022/01/15 06:45:44;;;;;;;3.03;2.72;;;;;;;;;;5137917;27;20229;-59
2022/01/15 06:48:11;;;;;;;2.92;2.72;;;;;;;;;;5135950;27;20195;-59
2022/01/15 06:50:38;;;;;;;2.85;2.65;;;;;;;;;;5138477;27;20221;-59
2022/01/15 06:53:07;;;;;;;2.95;2.70;;;;;;;;;;5138470;27;20510;-59
2022/01/15 06:55:35;;;;;;;2.40;2.20;;;;;;;;;;5130402;27;20575;-59
2022/01/15 06:58:02;;;;;;;3.25;2.95;;;;;;;;;;5122277;27;20198;-59
2022/01/15 07:00:29;;;;;;;3.25;2.95;;;;;;;;;;5137683;27;20206;-59
2022/01/15 07:03:00;;;;;;;2.63;2.42;;;;;;;;;;5138210;27;20213;-59
2022/01/15 07:05:28;;;;;;;2.65;2.45;;;;;;;;;;5137519;27;20194;-59
2022/01/15 07:07:56;;;;;;;2.45;2.25;;;;;;;;;;5136319;27;20214;-59
2022/01/15 07:10:25;;;;;;;2.85;2.53;;;;;;;;;;5137836;27;20263;-59
2022/01/15 07:12:52;;;;;;;2.75;2.55;;;;;;;;;;5138440;27;20202;-59
2022/01/15 07:15:20;;;;;;;2.80;2.60;;;;;;;;;;5137315;27;20198;-60
2022/01/15 07:17:48;;;;;;;2.75;2.55;;;;;;;;;;5138464;27;20199;-60
2022/01/15 07:20:16;;;;;;;2.90;2.65;;;;;;;;;;5136204;27;20198;-59
2022/01/15 07:22:44;;;;;;;2.65;2.45;;;;;;;;;;5138341;27;20229;-59
2022/01/15 07:25:12;;;;;;;3.00;2.70;;;;;;;;;;5137411;27;20207;-60
2022/01/15 07:27:41;;;;;;;2.60;2.40;;;;;;;;;;5137307;28;20617;-59
2022/01/15 07:30:09;;;;;;;3.58;2.47;;;;;;;;;;5123968;28;20554;-59
2022/01/15 07:32:37;;;;;;;2.53;2.33;;;;;;;;;;5125415;28;20198;-60
2022/01/15 07:35:05;;;;;;;2.35;2.15;;;;;;;;;;5134082;27;20637;-59
2022/01/15 07:37:33;;;;;;;2.85;2.65;;;;;;;;;;5124584;28;20315;-59
2022/01/15 07:40:00;;;;;;;3.15;2.85;;;;;;;;;;5133168;28;20277;-59
2022/01/15 07:42:33;;;;;;;3.10;2.80;;;;;;;;;;5132513;28;20209;-59
2022/01/15 07:45:02;;;;;;;2.63;2.42;;;;;;;;;;5136978;28;20267;-59
2022/01/15 07:47:29;;;;;;;3.03;2.72;;;;;;;;;;5137608;28;20237;-59
2022/01/15 07:49:57;;;;;;;2.70;2.50;;;;;;;;;;5133357;28;20211;-59
2022/01/15 07:52:24;;;;;;;2.92;2.50;;;;;;;;;;5131611;28;20213;-59
2022/01/15 07:54:52;;;;;;;2.90;2.63;;;;;;;;;;5136951;28;20194;-59
2022/01/15 07:57:19;;;;;;;3.00;2.72;;;;;;;;;;5136971;28;20475;-59
2022/01/15 07:59:46;;;;;;;2.63;2.42;;;;;;;;;;5129693;28;20195;-59
2022/01/15 08:02:15;;;;;;;2.55;2.20;;;;;;;;;;5129963;28;20203;-59
2022/01/15 08:04:42;;;;;;;2.70;2.50;;;;;;;;;;5137575;28;20234;-59
2022/01/15 08:07:10;;;;;;;2.78;2.47;;;;;;;;;;5136831;27;20222;-59
2022/01/15 08:09:37;;;;;;;2.88;2.67;;;;;;;;;;5135379;27;20514;-59
2022/01/15 08:12:05;;;;;;;2.83;2.60;;;;;;;;;;5136912;27;20198;-60
2022/01/15 08:14:32;;;;;;;3.00;2.70;;;;;;;;;;5137652;27;20202;-59
2022/01/15 08:17:00;;;;;;;2.47;2.28;;;;;;;;;;5137615;27;20194;-59
2022/01/15 08:19:29;;;;;;;2.80;2.60;;;;;;;;;;5130287;27;20202;-59
2022/01/15 08:21:57;;;;;;;2.88;2.60;;;;;;;;;;5140043;27;20206;-59
2022/01/15 08:24:24;;;;;;;2.78;2.58;;;;;;;;;;5140020;27;20206;-60
2022/01/15 08:26:52;;;;;;;3.13;2.70;;;;;;;;;;5140288;27;20302;-59
2022/01/15 08:29:20;;;;;;;2.80;2.60;;;;;;;;;;5139009;27;20549;-59
2022/01/15 08:31:48;;;;;;;3.10;2.80;;;;;;;;;;5139250;27;20213;-59
2022/01/15 08:34:15;;;;;;;3.03;2.72;;;;;;;;;;5141008;27;20465;-59
2022/01/15 08:36:44;;;;;;;2.60;2.40;;;;;;;;;;5130072;27;20201;-59
2022/01/15 08:39:11;;;;;;;3.10;2.80;;;;;;;;;;5137050;27;20497;-59
2022/01/15 08:41:39;;;;;;;3.03;2.72;;;;;;;;;;5128258;27;20198;-59
2022/01/15 08:44:07;;;;;;;3.20;2.90;;;;;;;;;;5140019;27;20202;-59
2022/01/15 08:46:35;;;;;;;2.88;2.67;;;;;;;;;;5139888;27;20194;-59
2022/01/15 08:49:02;;;;;;;3.10;2.80;;;;;;;;;;5138920;27;20737;-59
2022/01/15 08:51:31;;;;;;;3.03;2.80;;;;;;;;;;5139108;27;20191;-59
2022/01/15 08:53:59;;;;;;;2.72;2.53;;;;;;;;;;5139356;27;20211;-59
2022/01/15 08:56:27;;;;;;;3.17;2.88;;;;;;;;;;5139259;27;20209;-59
2022/01/15 08:58:54;;;;;;;3.00;2.70;;;;;;;;;;5139940;27;20228;-59
2022/01/15 09:01:22;;;;;;;3.10;2.80;;;;;;;;;;5128574;27;20207;-60
2022/01/15 09:03:49;;;;;;;2.83;2.63;;;;;;;;;;5139050;27;20505;-59
2022/01/15 09:06:16;;;;;;;3.33;3.03;;;;;;;;;;5139479;27;20293;-59
2022/01/15 09:08:45;;;;;;;3.05;2.78;;;;;;;;;;5138785;27;20222;-59
2022/01/15 09:11:13;;;;;;;2.92;2.70;;;;;;;;;;5139019;27;20395;-59
2022/01/15 09:13:43;;;;;;;3.13;2.83;;;;;;;;;;5139522;27;20202;-59
2022/01/15 09:16:10;;;;;;;3.10;2.80;;;;;;;;;;5139077;27;20198;-59
2022/01/15 09:18:38;;;;;;;3.05;2.75;;;;;;;;;;5138742;27;20198;-59
2022/01/15 09:21:05;;;;;;;3.25;2.95;;;;;;;;;;5129009;27;20782;-59
2022/01/15 09:23:33;;;;;;;3.22;2.92;;;;;;;;;;5138518;27;20202;-59
2022/01/15 09:26:00;;;;;;;3.30;3.00;;;;;;;;;;5129626;27;20202;-59
2022/01/15 09:31:19;;;;;;;3.53;3.03;;;;;;;;;;5043793;27;20225;-59
2022/01/15 09:33:47;;;;;;;3.70;3.15;;;;;;;;;;5138662;27;20209;-60
2022/01/15 09:36:14;;;;;;;3.10;2.80;;;;;;;;;;5128409;27;20198;-60
2022/01/15 09:38:41;;;;;;;4.35;2.92;;;;;;;;;;5138240;27;20724;-59
2022/01/15 09:41:09;;;;;;;4.45;2.90;;;;;;;;;;5138717;27;20206;-60
2022/01/15 09:43:39;;;;;;;3.22;2.90;;;;;;;;;;5134622;27;20205;-59
2022/01/15 09:46:06;;;;;;;4.15;2.90;;;;;;;;;;5128802;27;20612;-60
2022/01/15 09:48:37;;;;;;;4.13;2.92;;;;;;;;;;5138946;27;20643;-59
2022/01/15 09:51:04;;;;;;;3.33;3.03;;;;;;;;;;5137563;27;20600;-59
2022/01/15 09:53:34;;;;;;;3.60;2.95;;;;;;;;;;5138027;27;20202;-59
2022/01/15 09:56:05;;;;;;;2.90;2.53;;;;;;;;;;5137886;27;20210;-59
2022/01/15 09:58:33;;;;;;;3.00;2.70;;;;;;;;;;5138093;27;20194;-59
2022/01/15 10:01:05;;;;;;;3.72;3.00;;;;;;;;;;5135547;27;20203;-59
2022/01/15 10:03:35;;;;;;;2.65;2.45;;;;;;;;;;5124846;27;20190;-59
2022/01/15 10:06:05;;;;;;;3.22;2.90;;;;;;;;;;5137316;27;20209;-59
2022/01/15 10:08:33;;;;;;;3.45;2.90;;;;;;;;;;5127120;27;20247;-59
2022/01/15 10:11:05;;;;;;;3.10;2.80;;;;;;;;;;5128225;27;20230;-59
2022/01/15 10:13:38;;;;;;;2.90;2.70;;;;;;;;;;5138163;27;20248;-60
2022/01/15 10:16:18;;;;;;;3.38;2.70;;;;;;;;;;5137408;27;20198;-59
2022/01/15 10:18:47;;;;;;;5.07;4.57;;;;;;;;;;5138108;27;20198;-60
2022/01/15 10:21:16;;;;;;;6.22;5.05;;;;;;;;;;5124034;27;20199;-59
2022/01/15 10:23:47;;;;;;;5.82;5.25;;;;;;;;;;5135499;27;20210;-59
2022/01/15 10:26:16;;;;;;;6.63;5.03;;;;;;;;;;5135656;27;20205;-60
2022/01/15 10:28:54;;;;;;;5.32;4.70;;;;;;;;;;5136352;27;20218;-59
2022/01/15 10:31:23;;;;;;;5.45;4.68;;;;;;;;;;5136921;27;20205;-60
2022/01/15 10:33:51;;;;;;;7.30;4.63;;;;;;;;;;5131924;27;20221;-60
2022/01/15 10:36:20;;;;;;;5.93;4.53;;;;;;;;;;5129022;27;20198;-60
2022/01/15 10:38:47;;;;;;;5.32;4.47;;;;;;;;;;5133299;27;20186;-59
2022/01/15 10:41:29;;;;;;;6.35;4.60;;;;;;;;;;5136294;27;20194;-59
2022/01/15 10:43:57;;;;;;;6.70;4.38;;;;;;;;;;5137080;27;20217;-59
2022/01/15 10:46:35;;;;;;;6.97;4.55;;;;;;;;;;5135969;27;20194;-59
2022/01/15 10:49:17;;;;;;;9.70;4.70;;;;;;;;;;5136498;27;20210;-59
2022/01/15 10:51:44;;;;;;;7.00;4.30;;;;;;;;;;5136034;27;20498;-60
2022/01/15 10:54:13;;;;;;;18.30;16.25;;;;;;;;;;5137121;27;20202;-59
2022/01/15 10:56:40;;;;;;;19.58;17.42;;;;;;;;;;5126941;27;20266;-60
2022/01/15 10:59:10;;;;;;;15.65;14.15;;;;;;;;;;5136497;27;20209;-59
2022/01/15 11:01:39;;;;;;;17.27;13.75;;;;;;;;;;5135940;27;20206;-59
2022/01/15 11:04:11;;;;;;;14.95;13.35;;;;;;;;;;5136379;27;20190;-59
2022/01/15 11:06:39;;;;;;;14.73;11.95;;;;;;;;;;5135493;27;20221;-59
2022/01/15 11:09:07;;;;;;;13.38;11.35;;;;;;;;;;5121552;27;20219;-60
2022/01/15 11:11:34;;;;;;;12.05;10.90;;;;;;;;;;5132179;27;20650;-59
2022/01/15 11:14:01;;;;;;;12.07;10.90;;;;;;;;;;5136583;27;20210;-59
2022/01/15 11:16:29;;;;;;;11.05;9.95;;;;;;;;;;5136739;27;20198;-59
2022/01/15 11:18:58;;;;;;;9.77;8.77;;;;;;;;;;5136821;27;20480;-59
2022/01/15 11:21:26;;;;;;;10.05;9.05;;;;;;;;;;5126977;27;20205;-60
2022/01/15 11:23:53;;;;;;;11.00;8.80;;;;;;;;;;5135426;27;20722;-60
2022/01/15 11:26:23;;;;;;;8.93;8.10;;;;;;;;;;5136610;27;20750;-59
2022/01/15 11:28:53;;;;;;;8.68;7.68;;;;;;;;;;5136054;27;20234;-59
2022/01/15 11:31:21;;;;;;;8.80;7.90;;;;;;;;;;5135874;27;20234;-59
2022/01/15 11:33:50;;;;;;;7.95;7.15;;;;;;;;;;5136155;28;20202;-59
2022/01/15 11:36:30;;;;;;;7.93;7.13;;;;;;;;;;5126191;28;20213;-59
2022/01/15 11:38:58;;;;;;;7.82;6.85;;;;;;;;;;5133536;27;20209;-59
2022/01/15 11:41:39;;;;;;;12.40;11.20;;;;;;;;;;5125364;28;20190;-59
2022/01/15 11:44:06;;;;;;;10.70;9.70;;;;;;;;;;5136035;28;20645;-59
2022/01/15 11:46:34;;;;;;;9.38;8.50;;;;;;;;;;5119814;28;20217;-59
2022/01/15 11:49:20;;;;;;;9.73;8.93;;;;;;;;;;5126939;28;20226;-59
2022/01/15 11:51:49;;;;;;;9.15;8.35;;;;;;;;;;5140274;27;20206;-60
2022/01/15 11:54:17;;;;;;;9.38;8.35;;;;;;;;;;5140148;27;20198;-59
2022/01/15 11:56:46;;;;;;;9.38;8.00;;;;;;;;;;5140008;27;20225;-59
2022/01/15 11:59:28;;;;;;;11.80;7.97;;;;;;;;;;5139154;27;20186;-59
2022/01/15 12:01:56;;;;;;;12.07;7.72;;;;;;;;;;5107706;27;20202;-60
2022/01/15 12:04:27;;;;;;;8.63;7.35;;;;;;;;;;5134335;27;20202;-59
2022/01/15 12:07:21;;;;;;;8.75;7.38;;;;;;;;;;5138572;27;20194;-59
2022/01/15 12:09:50;;;;;;;9.27;7.10;;;;;;;;;;5088581;27;20625;-60
2022/01/15 12:12:40;;;;;;;7.60;6.90;;;;;;;;;;5140283;27;20600;-60
2022/01/15 12:15:09;;;;;;;6.90;6.30;;;;;;;;;;5138731;27;20209;-59
2022/01/15 12:17:38;;;;;;;9.25;6.57;;;;;;;;;;5140383;27;20230;-59
2022/01/15 12:20:07;;;;;;;6.63;6.03;;;;;;;;;;5138946;27;20206;-59
2022/01/15 12:22:40;;;;;;;6.20;5.60;;;;;;;;;;5139556;27;20597;-59
2022/01/15 12:25:10;;;;;;;6.53;5.88;;;;;;;;;;5138371;27;20227;-60
2022/01/15 12:27:38;;;;;;;6.68;5.97;;;;;;;;;;5140007;27;20202;-60
2022/01/15 12:30:07;;;;;;;7.03;6.05;;;;;;;;;;5140024;27;20562;-60
2022/01/15 12:32:38;;;;;;;6.55;5.53;;;;;;;;;;5139741;27;20242;-59
2022/01/15 12:35:10;;;;;;;5.93;5.05;;;;;;;;;;5137305;27;20285;-60
2022/01/15 12:37:38;;;;;;;5.57;4.90;;;;;;;;;;5136201;27;20585;-59
2022/01/15 12:40:07;;;;;;;5.80;4.60;;;;;;;;;;5136386;27;20198;-60
2022/01/15 12:42:36;;;;;;;5.25;4.80;;;;;;;;;;5135951;27;20298;-60
2022/01/15 12:45:04;;;;;;;5.10;4.60;;;;;;;;;;5129497;27;20318;-59
2022/01/15 12:47:42;;;;;;;5.35;4.70;;;;;;;;;;5131836;27;20190;-59
2022/01/15 12:50:10;;;;;;;4.65;4.18;;;;;;;;;;5136993;27;20201;-59
2022/01/15 12:52:37;;;;;;;4.82;4.43;;;;;;;;;;5136381;27;20581;-59
2022/01/15 12:55:05;;;;;;;5.20;4.70;;;;;;;;;;5137346;27;20198;-59
2022/01/15 12:57:45;;;;;;;4.88;4.05;;;;;;;;;;5137914;27;20237;-60
2022/01/15 13:00:13;;;;;;;5.07;4.28;;;;;;;;;;5138174;27;20343;-60
2022/01/15 13:02:40;;;;;;;4.38;3.97;;;;;;;;;;5136366;27;20210;-60
2022/01/15 13:05:11;;;;;;;4.45;4.05;;;;;;;;;;5137433;27;20209;-60
2022/01/15 13:07:54;;;;;;;4.00;3.50;;;;;;;;;;5134727;27;20226;-60
2022/01/15 13:10:46;;;;;;;4.50;3.90;;;;;;;;;;5127595;27;20225;-59
2022/01/15 13:13:19;;;;;;;3.80;3.50;;;;;;;;;;5137080;27;20210;-59
2022/01/15 13:15:46;;;;;;;5.03;4.03;;;;;;;;;;5136650;27;20214;-60
2022/01/15 13:18:15;;;;;;;4.30;3.90;;;;;;;;;;5137331;27;20198;-60
2022/01/15 13:20:43;;;;;;;4.20;3.80;;;;;;;;;;5135910;27;20474;-59
2022/01/15 13:23:10;;;;;;;4.03;3.63;;;;;;;;;;5136026;27;20589;-59
2022/01/15 13:25:38;;;;;;;3.83;3.33;;;;;;;;;;5136627;27;20198;-60
2022/01/15 13:28:05;;;;;;;3.72;3.40;;;;;;;;;;5136559;27;20479;-60
2022/01/15 13:30:34;;;;;;;3.42;3.13;;;;;;;;;;5137491;27;20209;-60
2022/01/15 13:33:04;;;;;;;3.67;3.38;;;;;;;;;;5137703;27;20202;-60
2022/01/15 13:35:32;;;;;;;3.58;3.25;;;;;;;;;;5134922;27;20597;-60
2022/01/15 13:38:02;;;;;;;3.53;3.22;;;;;;;;;;5136567;27;20198;-60
2022/01/15 13:40:31;;;;;;;3.50;3.20;;;;;;;;;;5135168;27;20225;-60
2022/01/15 13:42:58;;;;;;;3.45;3.15;;;;;;;;;;5130841;27;20198;-60
2022/01/15 13:45:28;;;;;;;3.45;3.15;;;;;;;;;;5135448;27;20217;-60
2022/01/15 13:48:07;;;;;;;3.55;3.25;;;;;;;;;;5136157;27;20206;-59
2022/01/15 13:53:29;;;;;;;3.20;2.90;;;;;;;;;;5136210;27;20196;-60
2022/01/15 13:56:09;;;;;;;3.40;3.10;;;;;;;;;;5134954;27;20569;-60
2022/01/15 13:58:37;;;;;;;2.95;2.65;;;;;;;;;;5136240;27;20479;-59
2022/01/15 14:01:16;;;;;;;3.17;2.88;;;;;;;;;;5135820;27;20394;-59
2022/01/15 14:03:44;;;;;;;2.88;2.67;;;;;;;;;;5136136;27;20561;-59
2022/01/15 14:06:12;;;;;;;3.22;2.92;;;;;;;;;;5134425;27;20580;-59
2022/01/15 14:08:39;;;;;;;3.13;2.83;;;;;;;;;;5134613;27;20218;-60
2022/01/15 14:11:14;;;;;;;3.40;3.10;;;;;;;;;;5134187;27;20520;-59
2022/01/15 14:13:42;;;;;;;2.75;2.55;;;;;;;;;;5134291;27;20205;-60
2022/01/15 14:16:24;;;;;;;2.70;2.50;;;;;;;;;;5135259;27;20210;-59
2022/01/15 14:21:55;;;;;;;3.30;3.00;;;;;;;;;;5131077;27;21053;-58
2022/01/15 14:24:24;;;;;;;3.00;2.80;;;;;;;;;;5130854;27;20213;-57
2022/01/15 14:26:54;;;;;;;2.92;2.70;;;;;;;;;;5131593;27;20210;-58
2022/01/15 14:29:22;;;;;;;3.30;3.10;;;;;;;;;;5132062;27;20199;-58
2022/01/15 14:31:51;;;;;;;2.88;2.67;;;;;;;;;;5130628;27;20206;-58
2022/01/15 14:34:19;;;;;;;2.80;2.60;;;;;;;;;;5131162;27;20542;-60
2022/01/15 14:36:46;;;;;;;2.97;2.78;;;;;;;;;;5131519;27;20198;-58
2022/01/15 14:39:16;;;;;;;3.15;2.95;;;;;;;;;;5131140;27;20473;-58
2022/01/15 14:41:44;;;;;;;2.92;2.72;;;;;;;;;;5131620;27;20229;-58
2022/01/15 14:44:12;;;;;;;2.70;2.50;;;;;;;;;;5130451;27;20194;-58
2022/01/15 14:46:40;;;;;;;2.70;2.50;;;;;;;;;;5130626;27;20198;-58
2022/01/15 14:49:08;;;;;;;2.90;2.60;;;;;;;;;;5130861;27;20217;-60
2022/01/15 14:51:35;;;;;;;3.35;2.95;;;;;;;;;;5130816;27;20202;-58
2022/01/15 14:54:02;;;;;;;3.03;2.67;;;;;;;;;;5132077;27;20225;-58
2022/01/15 14:56:31;;;;;;;2.88;2.53;;;;;;;;;;5131305;27;20331;-57
2022/01/15 14:58:59;;;;;;;3.20;2.63;;;;;;;;;;5132702;27;20221;-58
2022/01/15 15:01:27;;;;;;;2.85;2.60;;;;;;;;;;5131849;27;20218;-58
2022/01/15 15:03:55;;;;;;;3.00;2.63;;;;;;;;;;5132561;27;20209;-58
2022/01/15 15:06:22;;;;;;;2.83;2.63;;;;;;;;;;5131948;27;20229;-58
2022/01/15 15:08:49;;;;;;;2.70;2.50;;;;;;;;;;5131890;27;20194;-58
2022/01/15 15:11:17;;;;;;;2.70;2.50;;;;;;;;;;5115825;28;20224;-58